sensor_id;sensor_type;location;lat;lon;timestamp;P1;durP1;ratioP1;P2;durP2;ratioP2
18853;SDS011;9556;49.374;19.446;2022-10-16T00:00:31;7.63;;;4.80;;
18853;SDS011;9556;49.374;19.446;2022-10-16T00:02:58;6.32;;;4.40;;
18853;SDS011;9556;49.374;19.446;2022-10-16T00:05:25;6.57;;;4.47;;
18853;SDS011;9556;49.374;19.446;2022-10-16T00:07:53;6.28;;;4.38;;
18853;SDS011;9556;49.374;19.446;2022-10-16T00:10:21;7.25;;;4.50;;
18853;SDS011;9556;49.374;19.446;2022-10-16T00:12:48;6.40;;;4.30;;
18853;SDS011;9556;49.374;19.446;2022-10-16T00:15:15;5.25;;;3.90;;
18853;SDS011;9556;49.374;19.446;2022-10-16T00:17:42;7.53;;;4.53;;
18853;SDS011;9556;49.374;19.446;2022-10-16T00:20:09;6.55;;;3.92;;
18853;SDS011;9556;49.374;19.446;2022-10-16T00:22:37;6.35;;;4.53;;
18853;SDS011;9556;49.374;19.446;2022-10-16T00:25:06;6.60;;;4.10;;
18853;SDS011;9556;49.374;19.446;2022-10-16T00:27:34;5.78;;;4.07;;
18853;SDS011;9556;49.374;19.446;2022-10-16T00:30:01;6.30;;;4.05;;
18853;SDS011;9556;49.374;19.446;2022-10-16T00:32:28;5.68;;;4.32;;
18853;SDS011;9556;49.374;19.446;2022-10-16T00:34:55;6.20;;;4.22;;
18853;SDS011;9556;49.374;19.446;2022-10-16T00:37:22;6.18;;;4.50;;
18853;SDS011;9556;49.374;19.446;2022-10-16T00:39:49;7.97;;;4.63;;
18853;SDS011;9556;49.374;19.446;2022-10-16T00:42:18;8.25;;;4.20;;
18853;SDS011;9556;49.374;19.446;2022-10-16T00:44:47;7.53;;;4.65;;
18853;SDS011;9556;49.374;19.446;2022-10-16T00:47:19;6.53;;;4.10;;
18853;SDS011;9556;49.374;19.446;2022-10-16T00:49:47;7.47;;;4.15;;
18853;SDS011;9556;49.374;19.446;2022-10-16T00:52:14;5.18;;;4.00;;
18853;SDS011;9556;49.374;19.446;2022-10-16T00:54:42;5.10;;;3.90;;
18853;SDS011;9556;49.374;19.446;2022-10-16T00:57:09;6.65;;;4.07;;
18853;SDS011;9556;49.374;19.446;2022-10-16T00:59:38;5.70;;;4.28;;
18853;SDS011;9556;49.374;19.446;2022-10-16T01:02:10;7.18;;;4.10;;
18853;SDS011;9556;49.374;19.446;2022-10-16T01:04:38;6.95;;;4.43;;
18853;SDS011;9556;49.374;19.446;2022-10-16T01:07:07;6.25;;;3.97;;
18853;SDS011;9556;49.374;19.446;2022-10-16T01:09:40;8.63;;;4.13;;
18853;SDS011;9556;49.374;19.446;2022-10-16T01:12:12;6.10;;;4.05;;
18853;SDS011;9556;49.374;19.446;2022-10-16T01:14:44;6.10;;;4.00;;
18853;SDS011;9556;49.374;19.446;2022-10-16T01:17:13;5.78;;;4.22;;
18853;SDS011;9556;49.374;19.446;2022-10-16T01:19:50;4.90;;;3.90;;
18853;SDS011;9556;49.374;19.446;2022-10-16T01:22:24;6.45;;;4.10;;
18853;SDS011;9556;49.374;19.446;2022-10-16T01:24:52;5.65;;;3.92;;
18853;SDS011;9556;49.374;19.446;2022-10-16T01:27:23;5.57;;;4.05;;
18853;SDS011;9556;49.374;19.446;2022-10-16T01:29:52;5.47;;;3.70;;
18853;SDS011;9556;49.374;19.446;2022-10-16T01:32:23;5.15;;;3.78;;
18853;SDS011;9556;49.374;19.446;2022-10-16T01:34:51;7.10;;;4.18;;
18853;SDS011;9556;49.374;19.446;2022-10-16T01:37:23;8.95;;;4.00;;
18853;SDS011;9556;49.374;19.446;2022-10-16T01:39:52;4.72;;;3.80;;
18853;SDS011;9556;49.374;19.446;2022-10-16T01:42:23;6.07;;;3.88;;
18853;SDS011;9556;49.374;19.446;2022-10-16T01:44:52;4.65;;;3.40;;
18853;SDS011;9556;49.374;19.446;2022-10-16T01:47:21;5.55;;;3.88;;
18853;SDS011;9556;49.374;19.446;2022-10-16T01:49:49;4.82;;;3.80;;
18853;SDS011;9556;49.374;19.446;2022-10-16T01:52:18;5.05;;;3.70;;
18853;SDS011;9556;49.374;19.446;2022-10-16T01:54:47;5.68;;;3.92;;
18853;SDS011;9556;49.374;19.446;2022-10-16T01:57:16;6.80;;;4.10;;
18853;SDS011;9556;49.374;19.446;2022-10-16T01:59:46;6.25;;;4.13;;
18853;SDS011;9556;49.374;19.446;2022-10-16T02:02:14;5.65;;;3.95;;
18853;SDS011;9556;49.374;19.446;2022-10-16T02:04:42;5.22;;;3.63;;
18853;SDS011;9556;49.374;19.446;2022-10-16T02:07:10;6.72;;;3.67;;
18853;SDS011;9556;49.374;19.446;2022-10-16T02:09:38;4.80;;;3.88;;
18853;SDS011;9556;49.374;19.446;2022-10-16T02:12:06;4.88;;;3.83;;
18853;SDS011;9556;49.374;19.446;2022-10-16T02:14:35;5.72;;;3.90;;
18853;SDS011;9556;49.374;19.446;2022-10-16T02:17:10;4.47;;;3.88;;
18853;SDS011;9556;49.374;19.446;2022-10-16T02:19:38;6.50;;;4.10;;
18853;SDS011;9556;49.374;19.446;2022-10-16T02:22:05;7.05;;;3.90;;
18853;SDS011;9556;49.374;19.446;2022-10-16T02:24:33;6.00;;;4.07;;
18853;SDS011;9556;49.374;19.446;2022-10-16T02:27:03;4.55;;;3.78;;
18853;SDS011;9556;49.374;19.446;2022-10-16T02:29:33;5.07;;;3.97;;
18853;SDS011;9556;49.374;19.446;2022-10-16T02:32:04;5.40;;;3.85;;
18853;SDS011;9556;49.374;19.446;2022-10-16T02:34:34;5.53;;;3.90;;
18853;SDS011;9556;49.374;19.446;2022-10-16T02:37:02;5.30;;;3.72;;
18853;SDS011;9556;49.374;19.446;2022-10-16T02:39:30;5.70;;;3.95;;
18853;SDS011;9556;49.374;19.446;2022-10-16T02:41:57;5.80;;;3.65;;
18853;SDS011;9556;49.374;19.446;2022-10-16T02:44:25;6.57;;;4.10;;
18853;SDS011;9556;49.374;19.446;2022-10-16T02:46:52;5.85;;;3.50;;
18853;SDS011;9556;49.374;19.446;2022-10-16T02:49:19;5.63;;;3.88;;
18853;SDS011;9556;49.374;19.446;2022-10-16T02:51:47;6.32;;;3.70;;
18853;SDS011;9556;49.374;19.446;2022-10-16T02:54:14;4.88;;;3.80;;
18853;SDS011;9556;49.374;19.446;2022-10-16T02:56:41;6.07;;;3.75;;
18853;SDS011;9556;49.374;19.446;2022-10-16T02:59:08;4.88;;;4.03;;
18853;SDS011;9556;49.374;19.446;2022-10-16T03:01:36;6.53;;;3.70;;
18853;SDS011;9556;49.374;19.446;2022-10-16T03:04:03;6.07;;;3.85;;
18853;SDS011;9556;49.374;19.446;2022-10-16T03:06:30;6.40;;;3.65;;
18853;SDS011;9556;49.374;19.446;2022-10-16T03:08:59;4.20;;;3.50;;
18853;SDS011;9556;49.374;19.446;2022-10-16T03:11:26;5.30;;;3.70;;
18853;SDS011;9556;49.374;19.446;2022-10-16T03:13:53;4.03;;;3.42;;
18853;SDS011;9556;49.374;19.446;2022-10-16T03:16:20;4.72;;;3.67;;
18853;SDS011;9556;49.374;19.446;2022-10-16T03:18:47;5.45;;;3.65;;
18853;SDS011;9556;49.374;19.446;2022-10-16T03:21:15;6.43;;;3.60;;
18853;SDS011;9556;49.374;19.446;2022-10-16T03:23:42;4.93;;;3.88;;
18853;SDS011;9556;49.374;19.446;2022-10-16T03:26:11;6.10;;;3.88;;
18853;SDS011;9556;49.374;19.446;2022-10-16T03:28:38;5.93;;;3.80;;
18853;SDS011;9556;49.374;19.446;2022-10-16T03:31:05;5.32;;;3.90;;
18853;SDS011;9556;49.374;19.446;2022-10-16T03:33:33;4.78;;;3.78;;
18853;SDS011;9556;49.374;19.446;2022-10-16T03:36:00;7.22;;;3.65;;
18853;SDS011;9556;49.374;19.446;2022-10-16T03:38:27;5.55;;;3.70;;
18853;SDS011;9556;49.374;19.446;2022-10-16T03:40:54;5.30;;;3.55;;
18853;SDS011;9556;49.374;19.446;2022-10-16T03:43:23;7.25;;;3.60;;
18853;SDS011;9556;49.374;19.446;2022-10-16T03:45:50;4.93;;;3.20;;
18853;SDS011;9556;49.374;19.446;2022-10-16T03:48:17;6.30;;;3.78;;
18853;SDS011;9556;49.374;19.446;2022-10-16T03:50:44;5.60;;;3.60;;
18853;SDS011;9556;49.374;19.446;2022-10-16T03:53:13;4.18;;;3.55;;
18853;SDS011;9556;49.374;19.446;2022-10-16T03:55:40;6.55;;;3.63;;
18853;SDS011;9556;49.374;19.446;2022-10-16T03:58:08;6.05;;;3.67;;
18853;SDS011;9556;49.374;19.446;2022-10-16T04:00:39;4.68;;;3.40;;
18853;SDS011;9556;49.374;19.446;2022-10-16T04:03:06;4.95;;;3.70;;
18853;SDS011;9556;49.374;19.446;2022-10-16T04:05:33;4.63;;;3.45;;
18853;SDS011;9556;49.374;19.446;2022-10-16T04:08:01;7.18;;;3.50;;
18853;SDS011;9556;49.374;19.446;2022-10-16T04:10:28;4.05;;;3.35;;
18853;SDS011;9556;49.374;19.446;2022-10-16T04:12:55;7.15;;;4.03;;
18853;SDS011;9556;49.374;19.446;2022-10-16T04:15:22;5.50;;;3.60;;
18853;SDS011;9556;49.374;19.446;2022-10-16T04:17:51;6.35;;;3.90;;
18853;SDS011;9556;49.374;19.446;2022-10-16T04:20:18;5.28;;;3.55;;
18853;SDS011;9556;49.374;19.446;2022-10-16T04:22:45;4.60;;;3.60;;
18853;SDS011;9556;49.374;19.446;2022-10-16T04:25:13;5.93;;;3.35;;
18853;SDS011;9556;49.374;19.446;2022-10-16T04:27:40;5.13;;;3.47;;
18853;SDS011;9556;49.374;19.446;2022-10-16T04:30:07;5.72;;;3.60;;
18853;SDS011;9556;49.374;19.446;2022-10-16T04:32:34;4.30;;;3.58;;
18853;SDS011;9556;49.374;19.446;2022-10-16T04:35:03;6.05;;;3.47;;
18853;SDS011;9556;49.374;19.446;2022-10-16T04:37:30;5.10;;;3.80;;
18853;SDS011;9556;49.374;19.446;2022-10-16T04:39:57;4.47;;;3.72;;
18853;SDS011;9556;49.374;19.446;2022-10-16T04:42:24;5.10;;;3.67;;
18853;SDS011;9556;49.374;19.446;2022-10-16T04:44:52;5.50;;;3.50;;
18853;SDS011;9556;49.374;19.446;2022-10-16T04:47:19;4.80;;;3.45;;
18853;SDS011;9556;49.374;19.446;2022-10-16T04:49:46;5.00;;;3.78;;
18853;SDS011;9556;49.374;19.446;2022-10-16T04:52:14;5.38;;;3.42;;
18853;SDS011;9556;49.374;19.446;2022-10-16T04:54:42;5.28;;;3.30;;
18853;SDS011;9556;49.374;19.446;2022-10-16T04:57:10;5.45;;;3.70;;
18853;SDS011;9556;49.374;19.446;2022-10-16T04:59:37;6.22;;;3.80;;
18853;SDS011;9556;49.374;19.446;2022-10-16T05:02:04;5.30;;;3.92;;
18853;SDS011;9556;49.374;19.446;2022-10-16T05:04:31;7.90;;;4.00;;
18853;SDS011;9556;49.374;19.446;2022-10-16T05:06:58;4.30;;;3.20;;
18853;SDS011;9556;49.374;19.446;2022-10-16T05:09:27;4.45;;;3.45;;
18853;SDS011;9556;49.374;19.446;2022-10-16T05:11:54;4.40;;;3.38;;
18853;SDS011;9556;49.374;19.446;2022-10-16T05:14:21;4.20;;;3.40;;
18853;SDS011;9556;49.374;19.446;2022-10-16T05:16:48;6.45;;;3.80;;
18853;SDS011;9556;49.374;19.446;2022-10-16T05:19:16;3.95;;;3.15;;
18853;SDS011;9556;49.374;19.446;2022-10-16T05:21:44;4.25;;;3.38;;
18853;SDS011;9556;49.374;19.446;2022-10-16T05:24:11;7.53;;;3.80;;
18853;SDS011;9556;49.374;19.446;2022-10-16T05:26:39;5.30;;;3.50;;
18853;SDS011;9556;49.374;19.446;2022-10-16T05:29:06;5.68;;;3.90;;
18853;SDS011;9556;49.374;19.446;2022-10-16T05:31:33;5.18;;;3.90;;
18853;SDS011;9556;49.374;19.446;2022-10-16T05:34:01;9.18;;;3.85;;
18853;SDS011;9556;49.374;19.446;2022-10-16T05:36:28;6.00;;;3.90;;
18853;SDS011;9556;49.374;19.446;2022-10-16T05:38:55;5.70;;;3.70;;
18853;SDS011;9556;49.374;19.446;2022-10-16T05:41:22;51.15;;;5.28;;
18853;SDS011;9556;49.374;19.446;2022-10-16T05:43:52;6.03;;;3.95;;
18853;SDS011;9556;49.374;19.446;2022-10-16T05:46:20;7.28;;;4.20;;
18853;SDS011;9556;49.374;19.446;2022-10-16T05:48:47;8.45;;;3.78;;
18853;SDS011;9556;49.374;19.446;2022-10-16T05:51:14;5.40;;;3.83;;
18853;SDS011;9556;49.374;19.446;2022-10-16T05:53:41;5.20;;;3.58;;
18853;SDS011;9556;49.374;19.446;2022-10-16T05:56:09;10.60;;;4.40;;
18853;SDS011;9556;49.374;19.446;2022-10-16T05:58:37;7.65;;;3.80;;
18853;SDS011;9556;49.374;19.446;2022-10-16T06:01:08;5.45;;;3.70;;
18853;SDS011;9556;49.374;19.446;2022-10-16T06:03:36;11.38;;;4.03;;
18853;SDS011;9556;49.374;19.446;2022-10-16T06:06:07;7.50;;;4.13;;
18853;SDS011;9556;49.374;19.446;2022-10-16T06:08:34;8.88;;;3.67;;
18853;SDS011;9556;49.374;19.446;2022-10-16T06:11:02;5.07;;;4.00;;
18853;SDS011;9556;49.374;19.446;2022-10-16T06:13:29;6.28;;;3.63;;
18853;SDS011;9556;49.374;19.446;2022-10-16T06:15:57;14.02;;;3.70;;
18853;SDS011;9556;49.374;19.446;2022-10-16T06:18:25;6.75;;;3.83;;
18853;SDS011;9556;49.374;19.446;2022-10-16T06:20:53;11.25;;;4.07;;
18853;SDS011;9556;49.374;19.446;2022-10-16T06:23:20;8.85;;;3.70;;
18853;SDS011;9556;49.374;19.446;2022-10-16T06:25:47;6.65;;;3.67;;
18853;SDS011;9556;49.374;19.446;2022-10-16T06:28:14;8.32;;;3.65;;
18853;SDS011;9556;49.374;19.446;2022-10-16T06:30:41;11.68;;;3.70;;
18853;SDS011;9556;49.374;19.446;2022-10-16T06:33:09;7.60;;;3.80;;
18853;SDS011;9556;49.374;19.446;2022-10-16T06:35:37;16.00;;;4.25;;
18853;SDS011;9556;49.374;19.446;2022-10-16T06:38:05;11.45;;;3.97;;
18853;SDS011;9556;49.374;19.446;2022-10-16T06:40:32;14.05;;;4.05;;
18853;SDS011;9556;49.374;19.446;2022-10-16T06:42:59;11.00;;;4.18;;
18853;SDS011;9556;49.374;19.446;2022-10-16T06:45:26;14.63;;;4.07;;
18853;SDS011;9556;49.374;19.446;2022-10-16T06:47:53;16.67;;;4.45;;
18853;SDS011;9556;49.374;19.446;2022-10-16T06:50:20;15.60;;;3.67;;
18853;SDS011;9556;49.374;19.446;2022-10-16T06:52:50;13.82;;;4.00;;
18853;SDS011;9556;49.374;19.446;2022-10-16T06:55:17;13.68;;;3.85;;
18853;SDS011;9556;49.374;19.446;2022-10-16T06:57:46;15.63;;;4.22;;
18853;SDS011;9556;49.374;19.446;2022-10-16T07:00:13;11.15;;;4.18;;
18853;SDS011;9556;49.374;19.446;2022-10-16T07:02:40;10.13;;;4.47;;
18853;SDS011;9556;49.374;19.446;2022-10-16T07:05:08;19.20;;;4.43;;
18853;SDS011;9556;49.374;19.446;2022-10-16T07:07:35;8.63;;;4.13;;
18853;SDS011;9556;49.374;19.446;2022-10-16T07:10:04;9.93;;;4.60;;
18853;SDS011;9556;49.374;19.446;2022-10-16T07:12:31;7.82;;;4.07;;
18853;SDS011;9556;49.374;19.446;2022-10-16T07:14:58;12.98;;;4.50;;
18853;SDS011;9556;49.374;19.446;2022-10-16T07:17:25;8.90;;;4.50;;
18853;SDS011;9556;49.374;19.446;2022-10-16T07:19:52;11.35;;;4.72;;
18853;SDS011;9556;49.374;19.446;2022-10-16T07:22:20;9.68;;;4.90;;
18853;SDS011;9556;49.374;19.446;2022-10-16T07:24:47;8.77;;;4.95;;
18853;SDS011;9556;49.374;19.446;2022-10-16T07:27:16;12.18;;;4.78;;
18853;SDS011;9556;49.374;19.446;2022-10-16T07:29:43;9.05;;;4.60;;
18853;SDS011;9556;49.374;19.446;2022-10-16T07:32:10;11.00;;;4.50;;
18853;SDS011;9556;49.374;19.446;2022-10-16T07:34:38;13.52;;;4.40;;
18853;SDS011;9556;49.374;19.446;2022-10-16T07:37:05;11.57;;;4.72;;
18853;SDS011;9556;49.374;19.446;2022-10-16T07:39:32;7.13;;;4.60;;
18853;SDS011;9556;49.374;19.446;2022-10-16T07:41:59;8.73;;;4.70;;
18853;SDS011;9556;49.374;19.446;2022-10-16T07:44:28;11.35;;;4.32;;
18853;SDS011;9556;49.374;19.446;2022-10-16T07:46:55;11.00;;;4.70;;
18853;SDS011;9556;49.374;19.446;2022-10-16T07:49:22;9.25;;;4.55;;
18853;SDS011;9556;49.374;19.446;2022-10-16T07:51:49;5.25;;;4.25;;
18853;SDS011;9556;49.374;19.446;2022-10-16T07:54:16;7.25;;;4.78;;
18853;SDS011;9556;49.374;19.446;2022-10-16T07:56:44;7.05;;;4.80;;
18853;SDS011;9556;49.374;19.446;2022-10-16T07:59:11;10.13;;;4.50;;
18853;SDS011;9556;49.374;19.446;2022-10-16T08:01:39;11.55;;;5.28;;
18853;SDS011;9556;49.374;19.446;2022-10-16T08:04:08;5.53;;;4.50;;
18853;SDS011;9556;49.374;19.446;2022-10-16T08:06:35;6.88;;;4.05;;
18853;SDS011;9556;49.374;19.446;2022-10-16T08:09:03;6.75;;;4.40;;
18853;SDS011;9556;49.374;19.446;2022-10-16T08:11:31;9.38;;;4.60;;
18853;SDS011;9556;49.374;19.446;2022-10-16T08:13:58;7.60;;;4.22;;
18853;SDS011;9556;49.374;19.446;2022-10-16T08:16:25;6.97;;;4.70;;
18853;SDS011;9556;49.374;19.446;2022-10-16T08:18:53;7.55;;;4.70;;
18853;SDS011;9556;49.374;19.446;2022-10-16T08:21:21;7.68;;;4.40;;
18853;SDS011;9556;49.374;19.446;2022-10-16T08:23:49;6.28;;;4.32;;
18853;SDS011;9556;49.374;19.446;2022-10-16T08:26:16;11.02;;;4.47;;
18853;SDS011;9556;49.374;19.446;2022-10-16T08:28:44;6.20;;;4.55;;
18853;SDS011;9556;49.374;19.446;2022-10-16T08:31:12;11.68;;;4.53;;
18853;SDS011;9556;49.374;19.446;2022-10-16T08:33:40;8.80;;;4.55;;
18853;SDS011;9556;49.374;19.446;2022-10-16T08:36:09;13.02;;;5.20;;
18853;SDS011;9556;49.374;19.446;2022-10-16T08:38:37;18.05;;;5.07;;
18853;SDS011;9556;49.374;19.446;2022-10-16T08:41:13;13.68;;;5.55;;
18853;SDS011;9556;49.374;19.446;2022-10-16T08:43:52;13.38;;;5.15;;
18853;SDS011;9556;49.374;19.446;2022-10-16T08:46:24;15.20;;;5.25;;
18853;SDS011;9556;49.374;19.446;2022-10-16T08:48:56;25.42;;;6.82;;
18853;SDS011;9556;49.374;19.446;2022-10-16T08:51:25;11.43;;;5.80;;
18853;SDS011;9556;49.374;19.446;2022-10-16T08:53:53;16.77;;;6.15;;
18853;SDS011;9556;49.374;19.446;2022-10-16T08:56:21;18.00;;;6.25;;
18853;SDS011;9556;49.374;19.446;2022-10-16T08:58:48;21.27;;;6.85;;
18853;SDS011;9556;49.374;19.446;2022-10-16T09:01:17;16.80;;;5.80;;
18853;SDS011;9556;49.374;19.446;2022-10-16T09:03:54;15.77;;;5.90;;
18853;SDS011;9556;49.374;19.446;2022-10-16T09:09:21;19.37;;;5.90;;
18853;SDS011;9556;49.374;19.446;2022-10-16T09:11:52;22.33;;;6.22;;
18853;SDS011;9556;49.374;19.446;2022-10-16T09:14:27;18.70;;;7.13;;
18853;SDS011;9556;49.374;19.446;2022-10-16T09:17:03;14.63;;;6.03;;
18853;SDS011;9556;49.374;19.446;2022-10-16T09:19:35;27.92;;;6.20;;
18853;SDS011;9556;49.374;19.446;2022-10-16T09:22:09;18.15;;;5.65;;
18853;SDS011;9556;49.374;19.446;2022-10-16T09:24:38;14.70;;;5.50;;
18853;SDS011;9556;49.374;19.446;2022-10-16T09:27:06;15.65;;;5.93;;
18853;SDS011;9556;49.374;19.446;2022-10-16T09:29:34;13.23;;;5.50;;
18853;SDS011;9556;49.374;19.446;2022-10-16T09:32:07;14.70;;;5.70;;
18853;SDS011;9556;49.374;19.446;2022-10-16T09:34:37;11.10;;;5.82;;
18853;SDS011;9556;49.374;19.446;2022-10-16T09:37:09;13.38;;;5.25;;
18853;SDS011;9556;49.374;19.446;2022-10-16T09:39:45;17.30;;;5.63;;
18853;SDS011;9556;49.374;19.446;2022-10-16T09:42:14;15.07;;;4.88;;
18853;SDS011;9556;49.374;19.446;2022-10-16T09:44:41;16.50;;;5.47;;
18853;SDS011;9556;49.374;19.446;2022-10-16T09:47:12;20.25;;;5.47;;
18853;SDS011;9556;49.374;19.446;2022-10-16T09:49:50;16.60;;;4.95;;
18853;SDS011;9556;49.374;19.446;2022-10-16T09:52:17;7.78;;;4.55;;
18853;SDS011;9556;49.374;19.446;2022-10-16T09:54:50;14.98;;;5.22;;
18853;SDS011;9556;49.374;19.446;2022-10-16T09:57:17;12.02;;;5.13;;
18853;SDS011;9556;49.374;19.446;2022-10-16T09:59:47;13.63;;;5.10;;
18853;SDS011;9556;49.374;19.446;2022-10-16T10:02:15;10.98;;;4.65;;
18853;SDS011;9556;49.374;19.446;2022-10-16T10:04:44;14.80;;;5.43;;
18853;SDS011;9556;49.374;19.446;2022-10-16T10:07:18;18.13;;;5.20;;
18853;SDS011;9556;49.374;19.446;2022-10-16T10:09:45;14.57;;;4.82;;
18853;SDS011;9556;49.374;19.446;2022-10-16T10:12:21;16.58;;;5.00;;
18853;SDS011;9556;49.374;19.446;2022-10-16T10:14:49;10.02;;;4.72;;
18853;SDS011;9556;49.374;19.446;2022-10-16T10:17:17;10.70;;;4.47;;
18853;SDS011;9556;49.374;19.446;2022-10-16T10:19:46;20.75;;;5.05;;
18853;SDS011;9556;49.374;19.446;2022-10-16T10:25:17;14.63;;;4.68;;
18853;SDS011;9556;49.374;19.446;2022-10-16T10:27:50;15.10;;;4.85;;
18853;SDS011;9556;49.374;19.446;2022-10-16T10:30:22;13.88;;;4.32;;
18853;SDS011;9556;49.374;19.446;2022-10-16T10:32:53;24.55;;;5.00;;
18853;SDS011;9556;49.374;19.446;2022-10-16T10:35:22;16.80;;;5.13;;
18853;SDS011;9556;49.374;19.446;2022-10-16T10:37:58;15.40;;;4.70;;
18853;SDS011;9556;49.374;19.446;2022-10-16T10:40:30;13.23;;;4.35;;
18853;SDS011;9556;49.374;19.446;2022-10-16T10:43:03;21.20;;;4.45;;
18853;SDS011;9556;49.374;19.446;2022-10-16T10:45:36;9.00;;;4.50;;
18853;SDS011;9556;49.374;19.446;2022-10-16T10:48:17;11.68;;;4.65;;
18853;SDS011;9556;49.374;19.446;2022-10-16T10:50:48;10.80;;;4.68;;
18853;SDS011;9556;49.374;19.446;2022-10-16T10:53:22;12.10;;;4.63;;
18853;SDS011;9556;49.374;19.446;2022-10-16T10:55:52;15.27;;;4.75;;
18853;SDS011;9556;49.374;19.446;2022-10-16T11:01:07;15.18;;;4.95;;
18853;SDS011;9556;49.374;19.446;2022-10-16T11:03:41;11.60;;;4.65;;
18853;SDS011;9556;49.374;19.446;2022-10-16T11:06:10;11.07;;;4.88;;
18853;SDS011;9556;49.374;19.446;2022-10-16T11:08:39;16.85;;;4.55;;
18853;SDS011;9556;49.374;19.446;2022-10-16T11:11:09;17.50;;;4.13;;
18853;SDS011;9556;49.374;19.446;2022-10-16T11:13:38;14.52;;;4.70;;
18853;SDS011;9556;49.374;19.446;2022-10-16T11:16:10;33.80;;;5.03;;
18853;SDS011;9556;49.374;19.446;2022-10-16T11:18:42;12.55;;;5.07;;
18853;SDS011;9556;49.374;19.446;2022-10-16T11:21:12;10.82;;;4.60;;
18853;SDS011;9556;49.374;19.446;2022-10-16T11:23:41;8.88;;;4.85;;
18853;SDS011;9556;49.374;19.446;2022-10-16T11:26:11;14.88;;;4.45;;
18853;SDS011;9556;49.374;19.446;2022-10-16T11:28:41;11.65;;;4.90;;
18853;SDS011;9556;49.374;19.446;2022-10-16T11:31:14;13.20;;;4.75;;
18853;SDS011;9556;49.374;19.446;2022-10-16T11:33:44;12.57;;;4.60;;
18853;SDS011;9556;49.374;19.446;2022-10-16T11:36:14;12.88;;;4.82;;
18853;SDS011;9556;49.374;19.446;2022-10-16T11:38:44;10.75;;;4.60;;
18853;SDS011;9556;49.374;19.446;2022-10-16T11:41:18;13.52;;;4.65;;
18853;SDS011;9556;49.374;19.446;2022-10-16T11:43:49;13.25;;;5.13;;
18853;SDS011;9556;49.374;19.446;2022-10-16T11:46:21;19.17;;;4.90;;
18853;SDS011;9556;49.374;19.446;2022-10-16T11:48:52;17.38;;;4.50;;
18853;SDS011;9556;49.374;19.446;2022-10-16T11:51:21;13.57;;;4.47;;
18853;SDS011;9556;49.374;19.446;2022-10-16T11:53:53;8.85;;;4.60;;
18853;SDS011;9556;49.374;19.446;2022-10-16T11:56:24;7.55;;;4.20;;
18853;SDS011;9556;49.374;19.446;2022-10-16T11:58:53;8.45;;;4.90;;
18853;SDS011;9556;49.374;19.446;2022-10-16T12:01:25;11.48;;;4.18;;
18853;SDS011;9556;49.374;19.446;2022-10-16T12:03:56;11.00;;;4.78;;
18853;SDS011;9556;49.374;19.446;2022-10-16T12:06:29;8.15;;;4.45;;
18853;SDS011;9556;49.374;19.446;2022-10-16T12:08:58;9.23;;;4.53;;
18853;SDS011;9556;49.374;19.446;2022-10-16T12:11:33;7.53;;;4.65;;
18853;SDS011;9556;49.374;19.446;2022-10-16T12:14:05;9.80;;;4.68;;
18853;SDS011;9556;49.374;19.446;2022-10-16T12:16:33;7.10;;;4.47;;
18853;SDS011;9556;49.374;19.446;2022-10-16T12:19:10;8.18;;;4.95;;
18853;SDS011;9556;49.374;19.446;2022-10-16T12:21:38;11.40;;;4.35;;
18853;SDS011;9556;49.374;19.446;2022-10-16T12:24:05;7.35;;;4.13;;
18853;SDS011;9556;49.374;19.446;2022-10-16T12:26:33;9.30;;;4.25;;
18853;SDS011;9556;49.374;19.446;2022-10-16T12:29:13;8.32;;;4.50;;
18853;SDS011;9556;49.374;19.446;2022-10-16T12:31:44;14.85;;;4.90;;
18853;SDS011;9556;49.374;19.446;2022-10-16T12:34:21;6.55;;;4.60;;
18853;SDS011;9556;49.374;19.446;2022-10-16T12:36:49;10.05;;;4.57;;
18853;SDS011;9556;49.374;19.446;2022-10-16T12:39:20;11.65;;;4.63;;
18853;SDS011;9556;49.374;19.446;2022-10-16T12:41:48;15.52;;;4.80;;
18853;SDS011;9556;49.374;19.446;2022-10-16T12:44:21;8.25;;;4.15;;
18853;SDS011;9556;49.374;19.446;2022-10-16T12:46:52;11.48;;;4.70;;
18853;SDS011;9556;49.374;19.446;2022-10-16T12:49:28;9.93;;;4.40;;
18853;SDS011;9556;49.374;19.446;2022-10-16T12:51:56;7.47;;;4.45;;
18853;SDS011;9556;49.374;19.446;2022-10-16T12:54:25;9.73;;;4.78;;
18853;SDS011;9556;49.374;19.446;2022-10-16T12:56:59;14.27;;;4.93;;
18853;SDS011;9556;49.374;19.446;2022-10-16T12:59:31;8.32;;;4.40;;
18853;SDS011;9556;49.374;19.446;2022-10-16T13:04:58;9.63;;;4.18;;
18853;SDS011;9556;49.374;19.446;2022-10-16T13:07:32;8.07;;;4.50;;
18853;SDS011;9556;49.374;19.446;2022-10-16T13:10:06;6.95;;;4.28;;
18853;SDS011;9556;49.374;19.446;2022-10-16T13:12:41;8.10;;;4.82;;
18853;SDS011;9556;49.374;19.446;2022-10-16T13:18:06;14.20;;;4.80;;
18853;SDS011;9556;49.374;19.446;2022-10-16T13:20:40;17.70;;;4.70;;
18853;SDS011;9556;49.374;19.446;2022-10-16T13:23:13;14.02;;;4.40;;
18853;SDS011;9556;49.374;19.446;2022-10-16T13:25:48;17.23;;;5.15;;
18853;SDS011;9556;49.374;19.446;2022-10-16T13:28:16;15.90;;;5.05;;
18853;SDS011;9556;49.374;19.446;2022-10-16T13:30:50;9.43;;;4.75;;
18853;SDS011;9556;49.374;19.446;2022-10-16T13:33:19;11.00;;;4.63;;
18853;SDS011;9556;49.374;19.446;2022-10-16T13:35:49;10.80;;;4.55;;
18853;SDS011;9556;49.374;19.446;2022-10-16T13:38:17;10.00;;;4.82;;
18853;SDS011;9556;49.374;19.446;2022-10-16T13:40:49;7.88;;;4.97;;
18853;SDS011;9556;49.374;19.446;2022-10-16T13:43:16;14.77;;;4.65;;
18853;SDS011;9556;49.374;19.446;2022-10-16T13:45:52;9.30;;;5.03;;
18853;SDS011;9556;49.374;19.446;2022-10-16T13:48:19;7.32;;;4.13;;
18853;SDS011;9556;49.374;19.446;2022-10-16T13:50:46;10.50;;;4.75;;
18853;SDS011;9556;49.374;19.446;2022-10-16T13:53:25;7.50;;;4.85;;
18853;SDS011;9556;49.374;19.446;2022-10-16T13:55:53;5.88;;;4.50;;
18853;SDS011;9556;49.374;19.446;2022-10-16T13:58:20;6.97;;;4.80;;
18853;SDS011;9556;49.374;19.446;2022-10-16T14:00:53;9.15;;;4.68;;
18853;SDS011;9556;49.374;19.446;2022-10-16T14:03:21;9.93;;;4.88;;
18853;SDS011;9556;49.374;19.446;2022-10-16T14:05:49;9.43;;;4.68;;
18853;SDS011;9556;49.374;19.446;2022-10-16T14:08:17;10.85;;;5.20;;
18853;SDS011;9556;49.374;19.446;2022-10-16T14:10:48;9.85;;;4.80;;
18853;SDS011;9556;49.374;19.446;2022-10-16T14:13:17;9.65;;;4.88;;
18853;SDS011;9556;49.374;19.446;2022-10-16T14:15:46;15.63;;;5.20;;
18853;SDS011;9556;49.374;19.446;2022-10-16T14:18:15;10.82;;;4.75;;
18853;SDS011;9556;49.374;19.446;2022-10-16T14:20:45;7.40;;;4.65;;
18853;SDS011;9556;49.374;19.446;2022-10-16T14:23:19;9.88;;;4.78;;
18853;SDS011;9556;49.374;19.446;2022-10-16T14:25:48;9.75;;;4.57;;
18853;SDS011;9556;49.374;19.446;2022-10-16T14:28:17;7.90;;;4.53;;
18853;SDS011;9556;49.374;19.446;2022-10-16T14:30:51;8.68;;;5.13;;
18853;SDS011;9556;49.374;19.446;2022-10-16T14:33:20;12.65;;;4.40;;
18853;SDS011;9556;49.374;19.446;2022-10-16T14:35:57;12.30;;;5.53;;
18853;SDS011;9556;49.374;19.446;2022-10-16T14:38:25;8.50;;;4.32;;
18853;SDS011;9556;49.374;19.446;2022-10-16T14:40:54;12.98;;;5.38;;
18853;SDS011;9556;49.374;19.446;2022-10-16T14:43:26;9.98;;;4.70;;
18853;SDS011;9556;49.374;19.446;2022-10-16T14:45:54;9.43;;;4.75;;
18853;SDS011;9556;49.374;19.446;2022-10-16T14:48:22;10.75;;;4.60;;
18853;SDS011;9556;49.374;19.446;2022-10-16T14:50:49;6.38;;;4.65;;
18853;SDS011;9556;49.374;19.446;2022-10-16T14:53:17;7.13;;;4.63;;
18853;SDS011;9556;49.374;19.446;2022-10-16T14:55:44;10.73;;;4.75;;
18853;SDS011;9556;49.374;19.446;2022-10-16T14:58:14;6.50;;;4.88;;
18853;SDS011;9556;49.374;19.446;2022-10-16T15:00:42;12.93;;;5.03;;
18853;SDS011;9556;49.374;19.446;2022-10-16T15:03:09;8.10;;;5.00;;
18853;SDS011;9556;49.374;19.446;2022-10-16T15:05:36;16.23;;;4.95;;
18853;SDS011;9556;49.374;19.446;2022-10-16T15:08:03;10.40;;;4.97;;